sensor_id;sensor_type;location;lat;lon;timestamp;P1;durP1;ratioP1;P2;durP2;ratioP2
15297;SDS011;7750;48.796;9.026;2023-04-24T00:04:14;2.03;;;1.17;;
15297;SDS011;7750;48.796;9.026;2023-04-24T00:09:16;1.80;;;1.40;;
15297;SDS011;7750;48.796;9.026;2023-04-24T00:14:17;2.97;;;1.70;;
15297;SDS011;7750;48.796;9.026;2023-04-24T00:19:17;4.10;;;1.43;;
15297;SDS011;7750;48.796;9.026;2023-04-24T00:24:27;3.43;;;1.20;;
15297;SDS011;7750;48.796;9.026;2023-04-24T00:29:56;3.50;;;1.70;;
15297;SDS011;7750;48.796;9.026;2023-04-24T00:35:10;2.40;;;1.50;;
15297;SDS011;7750;48.796;9.026;2023-04-24T00:40:21;2.10;;;1.30;;
15297;SDS011;7750;48.796;9.026;2023-04-24T00:51:09;2.20;;;1.47;;
15297;SDS011;7750;48.796;9.026;2023-04-24T00:56:10;1.73;;;1.30;;
15297;SDS011;7750;48.796;9.026;2023-04-24T01:01:14;1.93;;;1.17;;
15297;SDS011;7750;48.796;9.026;2023-04-24T01:06:18;2.27;;;1.60;;
15297;SDS011;7750;48.796;9.026;2023-04-24T01:16:48;1.60;;;1.10;;
15297;SDS011;7750;48.796;9.026;2023-04-24T01:21:49;2.00;;;1.37;;
15297;SDS011;7750;48.796;9.026;2023-04-24T01:26:53;1.70;;;1.10;;
15297;SDS011;7750;48.796;9.026;2023-04-24T01:31:54;2.13;;;1.10;;
15297;SDS011;7750;48.796;9.026;2023-04-24T01:36:58;1.97;;;1.10;;
15297;SDS011;7750;48.796;9.026;2023-04-24T01:52:51;2.07;;;1.30;;
15297;SDS011;7750;48.796;9.026;2023-04-24T02:03:29;1.90;;;1.33;;
15297;SDS011;7750;48.796;9.026;2023-04-24T02:08:53;2.27;;;1.33;;
15297;SDS011;7750;48.796;9.026;2023-04-24T02:14:02;2.33;;;1.50;;
15297;SDS011;7750;48.796;9.026;2023-04-24T02:19:06;2.10;;;1.30;;
15297;SDS011;7750;48.796;9.026;2023-04-24T02:24:09;2.80;;;1.20;;
15297;SDS011;7750;48.796;9.026;2023-04-24T02:29:10;2.70;;;1.20;;
15297;SDS011;7750;48.796;9.026;2023-04-24T02:39:56;2.57;;;1.40;;
15297;SDS011;7750;48.796;9.026;2023-04-24T02:51:32;1.97;;;1.20;;
15297;SDS011;7750;48.796;9.026;2023-04-24T02:56:40;2.53;;;1.13;;
15297;SDS011;7750;48.796;9.026;2023-04-24T03:02:00;2.00;;;1.23;;
15297;SDS011;7750;48.796;9.026;2023-04-24T03:07:02;1.80;;;1.10;;
15297;SDS011;7750;48.796;9.026;2023-04-24T03:12:04;2.17;;;1.37;;
15297;SDS011;7750;48.796;9.026;2023-04-24T03:17:05;3.20;;;1.30;;
15297;SDS011;7750;48.796;9.026;2023-04-24T03:22:05;2.80;;;1.30;;
15297;SDS011;7750;48.796;9.026;2023-04-24T03:27:06;1.90;;;1.33;;
15297;SDS011;7750;48.796;9.026;2023-04-24T03:32:07;1.90;;;1.30;;
15297;SDS011;7750;48.796;9.026;2023-04-24T03:37:07;3.77;;;1.20;;
15297;SDS011;7750;48.796;9.026;2023-04-24T03:42:11;3.00;;;1.10;;
15297;SDS011;7750;48.796;9.026;2023-04-24T03:47:12;1.57;;;1.10;;
15297;SDS011;7750;48.796;9.026;2023-04-24T03:52:12;2.70;;;1.50;;
15297;SDS011;7750;48.796;9.026;2023-04-24T03:57:13;3.10;;;1.40;;
15297;SDS011;7750;48.796;9.026;2023-04-24T04:02:14;2.20;;;1.40;;
15297;SDS011;7750;48.796;9.026;2023-04-24T04:07:14;1.40;;;1.23;;
15297;SDS011;7750;48.796;9.026;2023-04-24T04:12:15;2.60;;;1.63;;
15297;SDS011;7750;48.796;9.026;2023-04-24T04:17:25;2.07;;;1.33;;
15297;SDS011;7750;48.796;9.026;2023-04-24T04:22:25;8.73;;;1.77;;
15297;SDS011;7750;48.796;9.026;2023-04-24T04:27:26;1.90;;;1.37;;
15297;SDS011;7750;48.796;9.026;2023-04-24T04:32:32;2.47;;;1.67;;
15297;SDS011;7750;48.796;9.026;2023-04-24T04:37:34;2.33;;;1.50;;
15297;SDS011;7750;48.796;9.026;2023-04-24T04:42:35;3.30;;;1.27;;
15297;SDS011;7750;48.796;9.026;2023-04-24T04:47:40;2.37;;;1.43;;
15297;SDS011;7750;48.796;9.026;2023-04-24T04:52:40;2.63;;;1.80;;
15297;SDS011;7750;48.796;9.026;2023-04-24T04:57:41;3.93;;;1.80;;
15297;SDS011;7750;48.796;9.026;2023-04-24T05:02:42;1.70;;;1.40;;
15297;SDS011;7750;48.796;9.026;2023-04-24T05:07:43;2.00;;;1.50;;
15297;SDS011;7750;48.796;9.026;2023-04-24T05:12:44;5.30;;;1.93;;
15297;SDS011;7750;48.796;9.026;2023-04-24T05:17:45;2.30;;;1.77;;
15297;SDS011;7750;48.796;9.026;2023-04-24T05:22:46;2.27;;;1.60;;
15297;SDS011;7750;48.796;9.026;2023-04-24T05:27:46;2.70;;;2.00;;
15297;SDS011;7750;48.796;9.026;2023-04-24T05:32:47;3.73;;;2.80;;
15297;SDS011;7750;48.796;9.026;2023-04-24T05:37:51;3.47;;;2.73;;
15297;SDS011;7750;48.796;9.026;2023-04-24T05:42:51;2.47;;;2.00;;
15297;SDS011;7750;48.796;9.026;2023-04-24T05:47:52;3.73;;;2.30;;
15297;SDS011;7750;48.796;9.026;2023-04-24T05:52:52;2.70;;;2.20;;
15297;SDS011;7750;48.796;9.026;2023-04-24T05:57:53;2.10;;;1.90;;
15297;SDS011;7750;48.796;9.026;2023-04-24T06:02:54;3.50;;;2.20;;
15297;SDS011;7750;48.796;9.026;2023-04-24T06:07:55;3.60;;;2.30;;
15297;SDS011;7750;48.796;9.026;2023-04-24T06:12:56;2.70;;;2.10;;
15297;SDS011;7750;48.796;9.026;2023-04-24T06:18:00;4.13;;;1.87;;
15297;SDS011;7750;48.796;9.026;2023-04-24T06:23:00;2.40;;;2.03;;
15297;SDS011;7750;48.796;9.026;2023-04-24T06:28:01;2.90;;;1.90;;
15297;SDS011;7750;48.796;9.026;2023-04-24T06:33:03;3.57;;;2.63;;
15297;SDS011;7750;48.796;9.026;2023-04-24T06:38:03;5.00;;;2.20;;
15297;SDS011;7750;48.796;9.026;2023-04-24T06:43:04;5.57;;;2.10;;
15297;SDS011;7750;48.796;9.026;2023-04-24T06:48:06;3.33;;;2.50;;
15297;SDS011;7750;48.796;9.026;2023-04-24T06:53:06;5.10;;;2.50;;
15297;SDS011;7750;48.796;9.026;2023-04-24T06:58:09;3.40;;;2.30;;
15297;SDS011;7750;48.796;9.026;2023-04-24T07:03:10;3.17;;;2.30;;
15297;SDS011;7750;48.796;9.026;2023-04-24T07:08:14;4.27;;;2.57;;
15297;SDS011;7750;48.796;9.026;2023-04-24T07:13:17;2.60;;;2.20;;
15297;SDS011;7750;48.796;9.026;2023-04-24T07:18:17;3.43;;;2.27;;
15297;SDS011;7750;48.796;9.026;2023-04-24T07:23:19;3.70;;;2.00;;
15297;SDS011;7750;48.796;9.026;2023-04-24T07:28:23;3.20;;;2.40;;
15297;SDS011;7750;48.796;9.026;2023-04-24T07:33:24;2.30;;;2.10;;
15297;SDS011;7750;48.796;9.026;2023-04-24T07:38:28;3.93;;;2.70;;
15297;SDS011;7750;48.796;9.026;2023-04-24T07:43:29;3.50;;;2.23;;
15297;SDS011;7750;48.796;9.026;2023-04-24T07:48:30;4.80;;;2.43;;
15297;SDS011;7750;48.796;9.026;2023-04-24T07:53:31;4.70;;;1.93;;
15297;SDS011;7750;48.796;9.026;2023-04-24T07:58:31;3.10;;;1.73;;
15297;SDS011;7750;48.796;9.026;2023-04-24T08:03:32;3.80;;;1.80;;
15297;SDS011;7750;48.796;9.026;2023-04-24T08:08:33;4.40;;;2.30;;
15297;SDS011;7750;48.796;9.026;2023-04-24T08:13:34;3.70;;;2.13;;
15297;SDS011;7750;48.796;9.026;2023-04-24T08:18:35;2.97;;;2.03;;
15297;SDS011;7750;48.796;9.026;2023-04-24T08:23:36;2.97;;;1.87;;
15297;SDS011;7750;48.796;9.026;2023-04-24T08:28:39;4.83;;;2.10;;
15297;SDS011;7750;48.796;9.026;2023-04-24T08:33:40;5.30;;;2.33;;
15297;SDS011;7750;48.796;9.026;2023-04-24T08:38:41;3.60;;;2.43;;
15297;SDS011;7750;48.796;9.026;2023-04-24T08:43:42;5.90;;;2.63;;
15297;SDS011;7750;48.796;9.026;2023-04-24T08:48:46;3.20;;;2.50;;
15297;SDS011;7750;48.796;9.026;2023-04-24T08:53:47;4.10;;;2.20;;
15297;SDS011;7750;48.796;9.026;2023-04-24T08:58:50;4.00;;;2.40;;
15297;SDS011;7750;48.796;9.026;2023-04-24T09:03:52;3.10;;;1.90;;
15297;SDS011;7750;48.796;9.026;2023-04-24T09:08:59;6.40;;;2.97;;
15297;SDS011;7750;48.796;9.026;2023-04-24T09:19:17;2.87;;;2.07;;
15297;SDS011;7750;48.796;9.026;2023-04-24T09:24:21;3.87;;;2.37;;
15297;SDS011;7750;48.796;9.026;2023-04-24T09:29:25;2.27;;;1.90;;
15297;SDS011;7750;48.796;9.026;2023-04-24T09:34:28;4.70;;;2.63;;
15297;SDS011;7750;48.796;9.026;2023-04-24T09:39:29;4.53;;;2.40;;
15297;SDS011;7750;48.796;9.026;2023-04-24T09:44:30;3.57;;;2.20;;
15297;SDS011;7750;48.796;9.026;2023-04-24T09:49:34;4.20;;;2.13;;
15297;SDS011;7750;48.796;9.026;2023-04-24T09:54:39;2.27;;;1.90;;
15297;SDS011;7750;48.796;9.026;2023-04-24T09:59:42;2.80;;;1.97;;
15297;SDS011;7750;48.796;9.026;2023-04-24T10:04:55;3.10;;;2.00;;
15297;SDS011;7750;48.796;9.026;2023-04-24T10:09:59;2.73;;;1.83;;
15297;SDS011;7750;48.796;9.026;2023-04-24T10:15:09;4.77;;;2.23;;
15297;SDS011;7750;48.796;9.026;2023-04-24T10:20:12;2.40;;;1.50;;
15297;SDS011;7750;48.796;9.026;2023-04-24T10:25:16;3.03;;;2.23;;
15297;SDS011;7750;48.796;9.026;2023-04-24T10:30:21;3.03;;;2.23;;
15297;SDS011;7750;48.796;9.026;2023-04-24T10:35:22;3.17;;;2.27;;
15297;SDS011;7750;48.796;9.026;2023-04-24T10:40:27;4.17;;;2.10;;
15297;SDS011;7750;48.796;9.026;2023-04-24T10:45:31;6.77;;;3.23;;
15297;SDS011;7750;48.796;9.026;2023-04-24T10:50:47;3.97;;;2.13;;
15297;SDS011;7750;48.796;9.026;2023-04-24T10:55:56;2.13;;;1.60;;
15297;SDS011;7750;48.796;9.026;2023-04-24T11:00:59;2.20;;;1.90;;
15297;SDS011;7750;48.796;9.026;2023-04-24T11:06:04;2.73;;;1.80;;
15297;SDS011;7750;48.796;9.026;2023-04-24T11:11:10;2.80;;;1.97;;
15297;SDS011;7750;48.796;9.026;2023-04-24T11:21:43;3.17;;;2.33;;
15297;SDS011;7750;48.796;9.026;2023-04-24T11:26:48;8.00;;;2.50;;
15297;SDS011;7750;48.796;9.026;2023-04-24T11:31:51;3.43;;;2.60;;
15297;SDS011;7750;48.796;9.026;2023-04-24T11:36:51;3.30;;;2.10;;
15297;SDS011;7750;48.796;9.026;2023-04-24T11:41:52;3.90;;;1.90;;
15297;SDS011;7750;48.796;9.026;2023-04-24T11:46:55;6.17;;;2.40;;
15297;SDS011;7750;48.796;9.026;2023-04-24T11:51:56;3.83;;;2.37;;
15297;SDS011;7750;48.796;9.026;2023-04-24T11:56:57;3.00;;;2.20;;
15297;SDS011;7750;48.796;9.026;2023-04-24T12:01:58;2.90;;;2.30;;
15297;SDS011;7750;48.796;9.026;2023-04-24T12:06:59;2.40;;;1.93;;
15297;SDS011;7750;48.796;9.026;2023-04-24T12:12:03;3.90;;;2.10;;
15297;SDS011;7750;48.796;9.026;2023-04-24T12:17:06;3.33;;;2.00;;
15297;SDS011;7750;48.796;9.026;2023-04-24T12:22:07;3.07;;;2.10;;
15297;SDS011;7750;48.796;9.026;2023-04-24T12:27:18;2.67;;;1.80;;
15297;SDS011;7750;48.796;9.026;2023-04-24T12:32:19;3.40;;;2.03;;
15297;SDS011;7750;48.796;9.026;2023-04-24T12:37:22;2.73;;;2.30;;
15297;SDS011;7750;48.796;9.026;2023-04-24T12:42:26;4.37;;;1.90;;
15297;SDS011;7750;48.796;9.026;2023-04-24T12:47:28;3.90;;;2.40;;
15297;SDS011;7750;48.796;9.026;2023-04-24T12:52:30;3.03;;;1.80;;
15297;SDS011;7750;48.796;9.026;2023-04-24T12:57:31;3.83;;;2.30;;
15297;SDS011;7750;48.796;9.026;2023-04-24T13:02:31;6.63;;;2.03;;
15297;SDS011;7750;48.796;9.026;2023-04-24T13:07:33;2.57;;;2.00;;
15297;SDS011;7750;48.796;9.026;2023-04-24T13:12:34;3.40;;;2.43;;
15297;SDS011;7750;48.796;9.026;2023-04-24T13:17:35;3.30;;;2.70;;
15297;SDS011;7750;48.796;9.026;2023-04-24T13:22:36;7.60;;;3.60;;
15297;SDS011;7750;48.796;9.026;2023-04-24T13:27:40;3.67;;;2.70;;
15297;SDS011;7750;48.796;9.026;2023-04-24T13:32:41;4.00;;;2.30;;
15297;SDS011;7750;48.796;9.026;2023-04-24T13:37:41;5.30;;;2.37;;
15297;SDS011;7750;48.796;9.026;2023-04-24T13:42:42;4.37;;;2.03;;
15297;SDS011;7750;48.796;9.026;2023-04-24T13:47:43;2.30;;;1.70;;
15297;SDS011;7750;48.796;9.026;2023-04-24T13:52:43;2.80;;;2.30;;
15297;SDS011;7750;48.796;9.026;2023-04-24T13:57:44;2.57;;;1.80;;
15297;SDS011;7750;48.796;9.026;2023-04-24T14:02:45;4.13;;;3.13;;
15297;SDS011;7750;48.796;9.026;2023-04-24T14:07:49;3.63;;;2.20;;
15297;SDS011;7750;48.796;9.026;2023-04-24T14:12:50;4.70;;;2.30;;
15297;SDS011;7750;48.796;9.026;2023-04-24T14:17:54;4.50;;;2.70;;
15297;SDS011;7750;48.796;9.026;2023-04-24T14:22:55;3.00;;;2.20;;
15297;SDS011;7750;48.796;9.026;2023-04-24T14:27:58;15.67;;;2.40;;
15297;SDS011;7750;48.796;9.026;2023-04-24T14:32:59;4.70;;;2.57;;
15297;SDS011;7750;48.796;9.026;2023-04-24T14:37:59;3.83;;;2.90;;
15297;SDS011;7750;48.796;9.026;2023-04-24T14:43:03;3.53;;;2.50;;
15297;SDS011;7750;48.796;9.026;2023-04-24T14:48:04;3.83;;;2.57;;
15297;SDS011;7750;48.796;9.026;2023-04-24T14:53:08;2.87;;;2.10;;
15297;SDS011;7750;48.796;9.026;2023-04-24T14:58:19;2.40;;;2.13;;
15297;SDS011;7750;48.796;9.026;2023-04-24T15:03:19;3.67;;;2.60;;
15297;SDS011;7750;48.796;9.026;2023-04-24T15:08:21;3.60;;;2.57;;
15297;SDS011;7750;48.796;9.026;2023-04-24T15:13:22;4.50;;;3.10;;
15297;SDS011;7750;48.796;9.026;2023-04-24T15:18:22;4.40;;;2.73;;
15297;SDS011;7750;48.796;9.026;2023-04-24T15:23:23;3.90;;;2.80;;
15297;SDS011;7750;48.796;9.026;2023-04-24T15:28:24;3.90;;;2.70;;
15297;SDS011;7750;48.796;9.026;2023-04-24T15:33:25;4.90;;;2.40;;
15297;SDS011;7750;48.796;9.026;2023-04-24T15:38:25;3.17;;;2.40;;
15297;SDS011;7750;48.796;9.026;2023-04-24T15:43:26;4.27;;;2.47;;
15297;SDS011;7750;48.796;9.026;2023-04-24T15:48:31;3.43;;;2.00;;
15297;SDS011;7750;48.796;9.026;2023-04-24T15:53:31;2.83;;;2.20;;
15297;SDS011;7750;48.796;9.026;2023-04-24T15:58:32;3.57;;;2.47;;
15297;SDS011;7750;48.796;9.026;2023-04-24T16:03:33;2.90;;;2.23;;
15297;SDS011;7750;48.796;9.026;2023-04-24T16:08:33;3.80;;;2.60;;
15297;SDS011;7750;48.796;9.026;2023-04-24T16:13:34;4.87;;;3.30;;
15297;SDS011;7750;48.796;9.026;2023-04-24T16:18:35;2.80;;;2.33;;
15297;SDS011;7750;48.796;9.026;2023-04-24T16:23:35;3.53;;;2.30;;
15297;SDS011;7750;48.796;9.026;2023-04-24T16:28:36;2.77;;;2.13;;
15297;SDS011;7750;48.796;9.026;2023-04-24T16:33:37;2.23;;;2.03;;
15297;SDS011;7750;48.796;9.026;2023-04-24T16:38:38;3.27;;;2.47;;
15297;SDS011;7750;48.796;9.026;2023-04-24T16:43:39;2.67;;;2.17;;
15297;SDS011;7750;48.796;9.026;2023-04-24T16:48:40;2.80;;;1.83;;
15297;SDS011;7750;48.796;9.026;2023-04-24T16:53:40;5.10;;;2.27;;
15297;SDS011;7750;48.796;9.026;2023-04-24T16:58:41;2.23;;;1.53;;
15297;SDS011;7750;48.796;9.026;2023-04-24T17:03:42;2.70;;;1.83;;
15297;SDS011;7750;48.796;9.026;2023-04-24T17:08:42;2.47;;;1.80;;
15297;SDS011;7750;48.796;9.026;2023-04-24T17:13:43;2.33;;;1.70;;
15297;SDS011;7750;48.796;9.026;2023-04-24T17:18:44;3.10;;;2.30;;
15297;SDS011;7750;48.796;9.026;2023-04-24T17:23:44;3.47;;;2.33;;
15297;SDS011;7750;48.796;9.026;2023-04-24T17:28:45;3.30;;;1.93;;
15297;SDS011;7750;48.796;9.026;2023-04-24T17:33:46;4.53;;;2.23;;
15297;SDS011;7750;48.796;9.026;2023-04-24T17:38:46;2.40;;;2.00;;
15297;SDS011;7750;48.796;9.026;2023-04-24T17:43:47;3.60;;;2.60;;
15297;SDS011;7750;48.796;9.026;2023-04-24T17:48:48;3.23;;;2.27;;
15297;SDS011;7750;48.796;9.026;2023-04-24T17:53:49;3.07;;;2.23;;
15297;SDS011;7750;48.796;9.026;2023-04-24T17:58:51;5.00;;;2.50;;
15297;SDS011;7750;48.796;9.026;2023-04-24T18:03:51;6.40;;;2.13;;
15297;SDS011;7750;48.796;9.026;2023-04-24T18:08:52;3.40;;;2.83;;
15297;SDS011;7750;48.796;9.026;2023-04-24T18:13:52;3.40;;;2.10;;
15297;SDS011;7750;48.796;9.026;2023-04-24T18:18:53;3.70;;;2.60;;
15297;SDS011;7750;48.796;9.026;2023-04-24T18:23:54;3.43;;;2.20;;
15297;SDS011;7750;48.796;9.026;2023-04-24T18:28:59;3.60;;;2.33;;
15297;SDS011;7750;48.796;9.026;2023-04-24T18:33:59;3.70;;;2.33;;
15297;SDS011;7750;48.796;9.026;2023-04-24T18:39:00;4.47;;;2.50;;
15297;SDS011;7750;48.796;9.026;2023-04-24T18:44:01;4.00;;;2.40;;
15297;SDS011;7750;48.796;9.026;2023-04-24T18:49:02;3.87;;;3.23;;
15297;SDS011;7750;48.796;9.026;2023-04-24T18:54:03;5.40;;;3.23;;
15297;SDS011;7750;48.796;9.026;2023-04-24T18:59:04;3.20;;;2.53;;
15297;SDS011;7750;48.796;9.026;2023-04-24T19:04:04;3.60;;;2.17;;
15297;SDS011;7750;48.796;9.026;2023-04-24T19:09:05;3.20;;;2.10;;
15297;SDS011;7750;48.796;9.026;2023-04-24T19:14:06;2.90;;;2.37;;
15297;SDS011;7750;48.796;9.026;2023-04-24T19:19:07;3.77;;;2.53;;
15297;SDS011;7750;48.796;9.026;2023-04-24T19:24:07;2.80;;;2.17;;
15297;SDS011;7750;48.796;9.026;2023-04-24T19:29:11;3.00;;;2.63;;
15297;SDS011;7750;48.796;9.026;2023-04-24T19:34:12;3.40;;;2.43;;
15297;SDS011;7750;48.796;9.026;2023-04-24T19:39:12;3.37;;;2.53;;
15297;SDS011;7750;48.796;9.026;2023-04-24T19:44:13;3.37;;;2.73;;
15297;SDS011;7750;48.796;9.026;2023-04-24T19:49:16;7.40;;;3.03;;
15297;SDS011;7750;48.796;9.026;2023-04-24T19:54:16;3.70;;;2.60;;
15297;SDS011;7750;48.796;9.026;2023-04-24T19:59:19;4.47;;;2.57;;
15297;SDS011;7750;48.796;9.026;2023-04-24T20:04:19;3.90;;;2.50;;
15297;SDS011;7750;48.796;9.026;2023-04-24T20:09:22;3.80;;;2.57;;
15297;SDS011;7750;48.796;9.026;2023-04-24T20:14:22;4.50;;;2.50;;
15297;SDS011;7750;48.796;9.026;2023-04-24T20:19:23;4.23;;;3.27;;
15297;SDS011;7750;48.796;9.026;2023-04-24T20:24:24;4.60;;;3.23;;
15297;SDS011;7750;48.796;9.026;2023-04-24T20:29:24;3.23;;;2.80;;
15297;SDS011;7750;48.796;9.026;2023-04-24T20:34:25;7.63;;;2.93;;
15297;SDS011;7750;48.796;9.026;2023-04-24T20:39:26;4.63;;;2.53;;
15297;SDS011;7750;48.796;9.026;2023-04-24T20:44:26;2.97;;;2.37;;
15297;SDS011;7750;48.796;9.026;2023-04-24T20:49:27;5.50;;;2.90;;
15297;SDS011;7750;48.796;9.026;2023-04-24T20:54:27;3.37;;;3.07;;
15297;SDS011;7750;48.796;9.026;2023-04-24T20:59:28;3.40;;;2.53;;
15297;SDS011;7750;48.796;9.026;2023-04-24T21:04:29;4.50;;;2.53;;
15297;SDS011;7750;48.796;9.026;2023-04-24T21:19:54;3.90;;;3.17;;
15297;SDS011;7750;48.796;9.026;2023-04-24T21:54:16;6.30;;;3.27;;
15297;SDS011;7750;48.796;9.026;2023-04-24T22:05:22;2.80;;;2.13;;
15297;SDS011;7750;48.796;9.026;2023-04-24T22:10:37;3.20;;;2.40;;
15297;SDS011;7750;48.796;9.026;2023-04-24T22:27:35;3.10;;;2.80;;
15297;SDS011;7750;48.796;9.026;2023-04-24T23:02:37;3.70;;;2.57;;
15297;SDS011;7750;48.796;9.026;2023-04-24T23:18:02;4.03;;;2.40;;
15297;SDS011;7750;48.796;9.026;2023-04-24T23:24:00;3.40;;;2.40;;
15297;SDS011;7750;48.796;9.026;2023-04-24T23:34:31;2.10;;;1.83;;
15297;SDS011;7750;48.796;9.026;2023-04-24T23:45:30;2.40;;;1.80;;
15297;SDS011;7750;48.796;9.026;2023-04-24T23:50:30;3.03;;;2.17;;
15297;SDS011;7750;48.796;9.026;2023-04-24T23:55:31;2.00;;;1.50;;
